sensor_id;sensor_type;location;lat;lon;timestamp;pressure;altitude;pressure_sealevel;temperature
82778;BMP280;72510;45.128;20.734;2024-03-02T00:02:54;99829.69;;;11.08
82778;BMP280;72510;45.128;20.734;2024-03-02T00:12:56;99835.53;;;10.80
82778;BMP280;72510;45.128;20.734;2024-03-02T00:23:06;99826.16;;;10.64
82778;BMP280;72510;45.128;20.734;2024-03-02T00:33:07;99822.97;;;10.54
82778;BMP280;72510;45.128;20.734;2024-03-02T00:53:27;99806.66;;;10.47
82778;BMP280;72510;45.128;20.734;2024-03-02T01:03:28;99809.28;;;10.41
82778;BMP280;72510;45.128;20.734;2024-03-02T01:13:30;99805.69;;;10.44
82778;BMP280;72510;45.128;20.734;2024-03-02T01:23:33;99807.81;;;10.40
82778;BMP280;72510;45.128;20.734;2024-03-02T01:33:36;99795.22;;;10.41
82778;BMP280;72510;45.128;20.734;2024-03-02T01:43:39;99784.88;;;10.43
82778;BMP280;72510;45.128;20.734;2024-03-02T01:53:40;99786.31;;;10.44
82778;BMP280;72510;45.128;20.734;2024-03-02T02:03:47;99782.41;;;10.39
82778;BMP280;72510;45.128;20.734;2024-03-02T02:13:48;99779.47;;;10.37
82778;BMP280;72510;45.128;20.734;2024-03-02T02:24:27;99769.19;;;10.24
82778;BMP280;72510;45.128;20.734;2024-03-02T02:34:28;99772.75;;;10.15
82778;BMP280;72510;45.128;20.734;2024-03-02T02:44:35;99775.06;;;10.08
82778;BMP280;72510;45.128;20.734;2024-03-02T02:54:42;99772.41;;;10.08
82778;BMP280;72510;45.128;20.734;2024-03-02T03:04:51;99780.41;;;10.08
82778;BMP280;72510;45.128;20.734;2024-03-02T03:14:53;99773.84;;;10.03
82778;BMP280;72510;45.128;20.734;2024-03-02T03:25:01;99766.47;;;9.92
82778;BMP280;72510;45.128;20.734;2024-03-02T03:35:06;99777.25;;;9.83
82778;BMP280;72510;45.128;20.734;2024-03-02T03:45:39;99781.16;;;9.88
82778;BMP280;72510;45.128;20.734;2024-03-02T03:55:41;99778.13;;;9.95
82778;BMP280;72510;45.128;20.734;2024-03-02T04:05:43;99792.63;;;10.00
82778;BMP280;72510;45.128;20.734;2024-03-02T04:15:59;99799.63;;;9.97
82778;BMP280;72510;45.128;20.734;2024-03-02T04:26:01;99800.16;;;9.81
82778;BMP280;72510;45.128;20.734;2024-03-02T04:36:09;99811.25;;;9.59
82778;BMP280;72510;45.128;20.734;2024-03-02T04:46:11;99808.09;;;9.40
82778;BMP280;72510;45.128;20.734;2024-03-02T04:56:14;99818.88;;;9.30
82778;BMP280;72510;45.128;20.734;2024-03-02T05:06:33;99815.63;;;9.26
82778;BMP280;72510;45.128;20.734;2024-03-02T05:16:35;99826.44;;;9.23
82778;BMP280;72510;45.128;20.734;2024-03-02T05:27:13;99824.75;;;9.20
82778;BMP280;72510;45.128;20.734;2024-03-02T05:37:22;99823.53;;;9.21
82778;BMP280;72510;45.128;20.734;2024-03-02T05:47:27;99821.25;;;9.28
82778;BMP280;72510;45.128;20.734;2024-03-02T05:57:50;99840.91;;;9.36
82778;BMP280;72510;45.128;20.734;2024-03-02T06:08:08;99838.88;;;9.46
82778;BMP280;72510;45.128;20.734;2024-03-02T06:29:22;99860.91;;;9.67
82778;BMP280;72510;45.128;20.734;2024-03-02T06:39:23;99887.66;;;9.79
82778;BMP280;72510;45.128;20.734;2024-03-02T06:49:24;99886.59;;;9.91
82778;BMP280;72510;45.128;20.734;2024-03-02T06:59:26;99901.44;;;9.97
82778;BMP280;72510;45.128;20.734;2024-03-02T07:09:27;99903.59;;;10.14
82778;BMP280;72510;45.128;20.734;2024-03-02T07:19:31;99922.69;;;10.33
82778;BMP280;72510;45.128;20.734;2024-03-02T07:29:32;99932.03;;;10.49
82778;BMP280;72510;45.128;20.734;2024-03-02T07:39:35;99934.44;;;10.67
82778;BMP280;72510;45.128;20.734;2024-03-02T07:49:38;99944.00;;;10.79
82778;BMP280;72510;45.128;20.734;2024-03-02T07:59:44;99952.63;;;10.95
82778;BMP280;72510;45.128;20.734;2024-03-02T08:09:47;99957.00;;;10.98
82778;BMP280;72510;45.128;20.734;2024-03-02T08:19:49;99962.72;;;11.11
82778;BMP280;72510;45.128;20.734;2024-03-02T08:29:56;99970.53;;;11.20
82778;BMP280;72510;45.128;20.734;2024-03-02T08:40:00;99978.09;;;11.59
82778;BMP280;72510;45.128;20.734;2024-03-02T08:50:07;99980.63;;;11.69
82778;BMP280;72510;45.128;20.734;2024-03-02T09:00:10;99966.91;;;11.87
82778;BMP280;72510;45.128;20.734;2024-03-02T09:10:14;99974.75;;;12.02
82778;BMP280;72510;45.128;20.734;2024-03-02T09:20:15;99994.50;;;12.21
82778;BMP280;72510;45.128;20.734;2024-03-02T09:30:18;100001.88;;;12.43
82778;BMP280;72510;45.128;20.734;2024-03-02T09:40:26;99994.41;;;12.59
82778;BMP280;72510;45.128;20.734;2024-03-02T09:50:28;99987.19;;;12.93
82778;BMP280;72510;45.128;20.734;2024-03-02T10:00:29;99993.03;;;13.14
82778;BMP280;72510;45.128;20.734;2024-03-02T10:10:40;99995.19;;;13.55
82778;BMP280;72510;45.128;20.734;2024-03-02T10:20:43;99988.28;;;13.99
82778;BMP280;72510;45.128;20.734;2024-03-02T10:30:47;99998.41;;;14.23
82778;BMP280;72510;45.128;20.734;2024-03-02T10:40:52;99989.66;;;14.23
82778;BMP280;72510;45.128;20.734;2024-03-02T10:50:54;99988.31;;;14.46
82778;BMP280;72510;45.128;20.734;2024-03-02T11:01:02;99975.72;;;14.71
82778;BMP280;72510;45.128;20.734;2024-03-02T11:11:15;99981.00;;;15.18
82778;BMP280;72510;45.128;20.734;2024-03-02T11:21:16;99975.59;;;15.49
82778;BMP280;72510;45.128;20.734;2024-03-02T11:31:21;99968.19;;;15.55
82778;BMP280;72510;45.128;20.734;2024-03-02T11:41:23;99972.34;;;15.99
82778;BMP280;72510;45.128;20.734;2024-03-02T11:51:24;99980.47;;;16.32
82778;BMP280;72510;45.128;20.734;2024-03-02T12:01:27;99967.66;;;16.38
82778;BMP280;72510;45.128;20.734;2024-03-02T12:11:28;99965.75;;;16.33
82778;BMP280;72510;45.128;20.734;2024-03-02T12:21:51;99963.78;;;16.84
82778;BMP280;72510;45.128;20.734;2024-03-02T12:31:54;99961.06;;;17.91
82778;BMP280;72510;45.128;20.734;2024-03-02T12:42:02;99958.78;;;17.95
82778;BMP280;72510;45.128;20.734;2024-03-02T12:52:05;99966.22;;;18.65
82778;BMP280;72510;45.128;20.734;2024-03-02T13:02:07;99960.31;;;18.95
82778;BMP280;72510;45.128;20.734;2024-03-02T13:12:20;99955.66;;;19.84
82778;BMP280;72510;45.128;20.734;2024-03-02T13:22:22;99952.22;;;19.75
82778;BMP280;72510;45.128;20.734;2024-03-02T13:32:25;99946.44;;;19.71
82778;BMP280;72510;45.128;20.734;2024-03-02T13:42:28;99951.16;;;21.34
82778;BMP280;72510;45.128;20.734;2024-03-02T13:52:29;99952.22;;;19.75
82778;BMP280;72510;45.128;20.734;2024-03-02T14:02:33;99955.31;;;19.36
82778;BMP280;72510;45.128;20.734;2024-03-02T14:12:41;99951.97;;;19.58
82778;BMP280;72510;45.128;20.734;2024-03-02T14:22:42;99950.81;;;19.02
82778;BMP280;72510;45.128;20.734;2024-03-02T14:32:49;99943.09;;;20.48
82778;BMP280;72510;45.128;20.734;2024-03-02T14:42:52;99945.06;;;21.26
82778;BMP280;72510;45.128;20.734;2024-03-02T14:52:56;99941.63;;;21.66
82778;BMP280;72510;45.128;20.734;2024-03-02T15:03:01;99943.03;;;21.34
82778;BMP280;72510;45.128;20.734;2024-03-02T15:13:03;99940.00;;;21.63
82778;BMP280;72510;45.128;20.734;2024-03-02T15:23:04;99942.13;;;21.39
82778;BMP280;72510;45.128;20.734;2024-03-02T15:33:06;99944.19;;;21.23
82778;BMP280;72510;45.128;20.734;2024-03-02T15:43:14;99936.63;;;20.35
82778;BMP280;72510;45.128;20.734;2024-03-02T15:53:16;99951.59;;;19.46
82778;BMP280;72510;45.128;20.734;2024-03-02T16:03:17;99952.03;;;17.27
82778;BMP280;72510;45.128;20.734;2024-03-02T16:13:18;99952.75;;;15.61
82778;BMP280;72510;45.128;20.734;2024-03-02T16:23:23;99956.00;;;14.33
82778;BMP280;72510;45.128;20.734;2024-03-02T16:33:24;99974.06;;;13.40
82778;BMP280;72510;45.128;20.734;2024-03-02T16:43:25;99981.28;;;12.72
82778;BMP280;72510;45.128;20.734;2024-03-02T16:53:30;99989.41;;;12.23
82778;BMP280;72510;45.128;20.734;2024-03-02T17:03:33;99987.63;;;11.66
82778;BMP280;72510;45.128;20.734;2024-03-02T17:13:37;99994.78;;;11.23
82778;BMP280;72510;45.128;20.734;2024-03-02T17:23:41;100005.34;;;10.85
82778;BMP280;72510;45.128;20.734;2024-03-02T17:33:43;100011.91;;;10.49
82778;BMP280;72510;45.128;20.734;2024-03-02T17:43:44;100005.09;;;10.07
82778;BMP280;72510;45.128;20.734;2024-03-02T17:53:49;100019.25;;;9.98
82778;BMP280;72510;45.128;20.734;2024-03-02T18:04:02;100035.56;;;9.91
82778;BMP280;72510;45.128;20.734;2024-03-02T18:14:07;100046.03;;;9.65
82778;BMP280;72510;45.128;20.734;2024-03-02T18:24:08;100037.22;;;9.44
82778;BMP280;72510;45.128;20.734;2024-03-02T18:34:10;100046.72;;;9.21
82778;BMP280;72510;45.128;20.734;2024-03-02T18:44:12;100047.84;;;9.05
82778;BMP280;72510;45.128;20.734;2024-03-02T18:54:13;100049.16;;;8.61
82778;BMP280;72510;45.128;20.734;2024-03-02T19:04:17;100063.66;;;8.51
82778;BMP280;72510;45.128;20.734;2024-03-02T19:14:23;100062.25;;;8.31
82778;BMP280;72510;45.128;20.734;2024-03-02T19:24:37;100057.06;;;7.76
82778;BMP280;72510;45.128;20.734;2024-03-02T19:34:38;100055.03;;;7.80
82778;BMP280;72510;45.128;20.734;2024-03-02T19:44:39;100069.72;;;7.81
82778;BMP280;72510;45.128;20.734;2024-03-02T19:54:43;100072.38;;;7.53
82778;BMP280;72510;45.128;20.734;2024-03-02T20:04:45;100066.66;;;7.46
82778;BMP280;72510;45.128;20.734;2024-03-02T20:14:46;100064.31;;;7.39
82778;BMP280;72510;45.128;20.734;2024-03-02T20:24:48;100068.84;;;7.29
82778;BMP280;72510;45.128;20.734;2024-03-02T20:34:51;100066.91;;;7.20
82778;BMP280;72510;45.128;20.734;2024-03-02T20:44:55;100082.38;;;7.12
82778;BMP280;72510;45.128;20.734;2024-03-02T20:54:57;100070.28;;;7.02
82778;BMP280;72510;45.128;20.734;2024-03-02T21:05:01;100070.28;;;7.11
82778;BMP280;72510;45.128;20.734;2024-03-02T21:15:07;100080.16;;;7.11
82778;BMP280;72510;45.128;20.734;2024-03-02T21:25:08;100070.91;;;7.16
82778;BMP280;72510;45.128;20.734;2024-03-02T21:35:17;100070.47;;;7.26
82778;BMP280;72510;45.128;20.734;2024-03-02T21:45:19;100081.69;;;7.40
82778;BMP280;72510;45.128;20.734;2024-03-02T21:55:22;100083.88;;;7.41
82778;BMP280;72510;45.128;20.734;2024-03-02T22:05:23;100089.63;;;7.30
82778;BMP280;72510;45.128;20.734;2024-03-02T22:15:26;100086.81;;;7.25
82778;BMP280;72510;45.128;20.734;2024-03-02T22:25:27;100086.81;;;7.16
82778;BMP280;72510;45.128;20.734;2024-03-02T22:35:57;100091.44;;;6.93
82778;BMP280;72510;45.128;20.734;2024-03-02T22:46:01;100088.75;;;6.74
82778;BMP280;72510;45.128;20.734;2024-03-02T22:56:03;100081.06;;;6.67
82778;BMP280;72510;45.128;20.734;2024-03-02T23:06:15;100084.41;;;6.59
82778;BMP280;72510;45.128;20.734;2024-03-02T23:16:16;100078.38;;;6.58
82778;BMP280;72510;45.128;20.734;2024-03-02T23:26:20;100083.75;;;6.77
82778;BMP280;72510;45.128;20.734;2024-03-02T23:36:36;100081.97;;;6.73
82778;BMP280;72510;45.128;20.734;2024-03-02T23:46:37;100084.13;;;6.66
82778;BMP280;72510;45.128;20.734;2024-03-02T23:57:04;100082.22;;;6.57
